sensor_id;sensor_type;location;lat;lon;timestamp;temperature;humidity
7325;DHT22;3703;48.016;7.802;2023-08-24T00:02:02;25.90;1.00
7325;DHT22;3703;48.016;7.802;2023-08-24T00:04:29;26.10;1.00
7325;DHT22;3703;48.016;7.802;2023-08-24T00:06:56;26.20;1.00
7325;DHT22;3703;48.016;7.802;2023-08-24T00:09:26;26.30;99.90
7325;DHT22;3703;48.016;7.802;2023-08-24T00:11:53;26.40;99.90
7325;DHT22;3703;48.016;7.802;2023-08-24T00:14:21;26.40;99.90
7325;DHT22;3703;48.016;7.802;2023-08-24T00:16:48;26.50;99.90
7325;DHT22;3703;48.016;7.802;2023-08-24T00:19:15;26.50;29.90
7325;DHT22;3703;48.016;7.802;2023-08-24T00:21:42;26.10;99.90
7325;DHT22;3703;48.016;7.802;2023-08-24T00:24:10;26.10;1.00
7325;DHT22;3703;48.016;7.802;2023-08-24T00:26:37;26.30;99.90
7325;DHT22;3703;48.016;7.802;2023-08-24T00:29:05;26.00;1.00
7325;DHT22;3703;48.016;7.802;2023-08-24T00:31:32;25.80;1.00
7325;DHT22;3703;48.016;7.802;2023-08-24T00:33:59;26.10;1.00
7325;DHT22;3703;48.016;7.802;2023-08-24T00:36:26;25.80;1.00
7325;DHT22;3703;48.016;7.802;2023-08-24T00:38:53;25.90;1.00
7325;DHT22;3703;48.016;7.802;2023-08-24T00:41:20;26.10;1.00
7325;DHT22;3703;48.016;7.802;2023-08-24T00:43:49;26.90;1.00
7325;DHT22;3703;48.016;7.802;2023-08-24T00:46:17;26.30;1.00
7325;DHT22;3703;48.016;7.802;2023-08-24T00:48:44;26.30;99.90
7325;DHT22;3703;48.016;7.802;2023-08-24T00:51:11;26.30;99.90
7325;DHT22;3703;48.016;7.802;2023-08-24T00:53:39;26.30;99.90
7325;DHT22;3703;48.016;7.802;2023-08-24T00:56:06;26.30;99.90
7325;DHT22;3703;48.016;7.802;2023-08-24T00:58:33;25.60;99.90
7325;DHT22;3703;48.016;7.802;2023-08-24T01:01:03;26.30;99.90
7325;DHT22;3703;48.016;7.802;2023-08-24T01:03:31;26.10;99.90
7325;DHT22;3703;48.016;7.802;2023-08-24T01:05:59;25.90;99.90
7325;DHT22;3703;48.016;7.802;2023-08-24T01:08:26;25.50;74.40
7325;DHT22;3703;48.016;7.802;2023-08-24T01:10:59;25.60;84.60
7325;DHT22;3703;48.016;7.802;2023-08-24T01:13:38;25.50;94.50
7325;DHT22;3703;48.016;7.802;2023-08-24T01:16:15;25.80;1.00
7325;DHT22;3703;48.016;7.802;2023-08-24T01:18:44;25.90;1.00
7325;DHT22;3703;48.016;7.802;2023-08-24T01:21:12;25.90;1.00
7325;DHT22;3703;48.016;7.802;2023-08-24T01:23:44;26.00;1.00
7325;DHT22;3703;48.016;7.802;2023-08-24T01:26:19;26.20;1.00
7325;DHT22;3703;48.016;7.802;2023-08-24T01:28:47;26.30;99.90
7325;DHT22;3703;48.016;7.802;2023-08-24T01:31:15;26.30;99.90
7325;DHT22;3703;48.016;7.802;2023-08-24T01:33:42;26.20;99.90
7325;DHT22;3703;48.016;7.802;2023-08-24T01:36:12;26.20;99.90
7325;DHT22;3703;48.016;7.802;2023-08-24T01:38:40;26.20;99.90
7325;DHT22;3703;48.016;7.802;2023-08-24T01:41:12;26.10;99.90
7325;DHT22;3703;48.016;7.802;2023-08-24T01:43:47;26.10;99.90
7325;DHT22;3703;48.016;7.802;2023-08-24T01:46:18;26.00;99.90
7325;DHT22;3703;48.016;7.802;2023-08-24T01:48:47;26.10;99.90
7325;DHT22;3703;48.016;7.802;2023-08-24T01:51:16;26.10;99.90
7325;DHT22;3703;48.016;7.802;2023-08-24T01:53:43;26.10;99.90
7325;DHT22;3703;48.016;7.802;2023-08-24T01:56:11;26.00;99.90
7325;DHT22;3703;48.016;7.802;2023-08-24T01:58:39;26.20;99.90
7325;DHT22;3703;48.016;7.802;2023-08-24T02:01:08;26.80;1.00
7325;DHT22;3703;48.016;7.802;2023-08-24T02:03:36;26.10;1.00
7325;DHT22;3703;48.016;7.802;2023-08-24T02:06:04;26.00;1.00
7325;DHT22;3703;48.016;7.802;2023-08-24T02:08:32;26.00;1.00
7325;DHT22;3703;48.016;7.802;2023-08-24T02:10:59;26.00;1.00
7325;DHT22;3703;48.016;7.802;2023-08-24T02:13:27;26.10;1.00
7325;DHT22;3703;48.016;7.802;2023-08-24T02:16:01;26.00;1.00
7325;DHT22;3703;48.016;7.802;2023-08-24T02:18:31;26.00;1.00
7325;DHT22;3703;48.016;7.802;2023-08-24T02:20:59;26.00;1.00
7325;DHT22;3703;48.016;7.802;2023-08-24T02:23:27;25.90;1.00
7325;DHT22;3703;48.016;7.802;2023-08-24T02:25:56;25.70;1.00
7325;DHT22;3703;48.016;7.802;2023-08-24T02:28:23;25.60;40.90
7325;DHT22;3703;48.016;7.802;2023-08-24T02:30:50;25.70;67.20
7325;DHT22;3703;48.016;7.802;2023-08-24T02:33:17;25.80;29.90
7325;DHT22;3703;48.016;7.802;2023-08-24T02:35:48;25.80;5.40
7325;DHT22;3703;48.016;7.802;2023-08-24T02:38:34;25.90;1.00
7325;DHT22;3703;48.016;7.802;2023-08-24T02:41:02;25.80;36.60
7325;DHT22;3703;48.016;7.802;2023-08-24T02:43:30;25.80;45.00
7325;DHT22;3703;48.016;7.802;2023-08-24T02:46:00;25.90;99.90
7325;DHT22;3703;48.016;7.802;2023-08-24T02:48:28;26.00;1.00
7325;DHT22;3703;48.016;7.802;2023-08-24T02:50:59;26.10;1.00
7325;DHT22;3703;48.016;7.802;2023-08-24T02:53:27;26.00;1.00
7325;DHT22;3703;48.016;7.802;2023-08-24T02:55:55;26.00;1.00
7325;DHT22;3703;48.016;7.802;2023-08-24T02:58:22;26.20;1.00
7325;DHT22;3703;48.016;7.802;2023-08-24T03:00:49;26.30;1.00
7325;DHT22;3703;48.016;7.802;2023-08-24T03:03:16;26.40;99.90
7325;DHT22;3703;48.016;7.802;2023-08-24T03:05:53;26.40;99.90
7325;DHT22;3703;48.016;7.802;2023-08-24T03:08:22;26.50;22.70
7325;DHT22;3703;48.016;7.802;2023-08-24T03:10:49;26.40;1.00
7325;DHT22;3703;48.016;7.802;2023-08-24T03:13:17;26.30;70.70
7325;DHT22;3703;48.016;7.802;2023-08-24T03:15:45;26.00;99.90
7325;DHT22;3703;48.016;7.802;2023-08-24T03:18:12;25.90;1.00
7325;DHT22;3703;48.016;7.802;2023-08-24T03:20:40;25.90;1.00
7325;DHT22;3703;48.016;7.802;2023-08-24T03:23:08;25.70;1.00
7325;DHT22;3703;48.016;7.802;2023-08-24T03:25:39;25.70;1.00
7325;DHT22;3703;48.016;7.802;2023-08-24T03:28:27;25.00;1.00
7325;DHT22;3703;48.016;7.802;2023-08-24T03:30:55;25.70;1.00
7325;DHT22;3703;48.016;7.802;2023-08-24T03:33:22;26.00;1.00
7325;DHT22;3703;48.016;7.802;2023-08-24T03:35:49;26.00;1.00
7325;DHT22;3703;48.016;7.802;2023-08-24T03:38:16;25.90;1.00
7325;DHT22;3703;48.016;7.802;2023-08-24T03:40:45;25.70;1.00
7325;DHT22;3703;48.016;7.802;2023-08-24T03:43:12;25.70;1.00
7325;DHT22;3703;48.016;7.802;2023-08-24T03:45:39;25.70;1.00
7325;DHT22;3703;48.016;7.802;2023-08-24T03:48:08;25.60;1.00
7325;DHT22;3703;48.016;7.802;2023-08-24T03:50:35;25.50;1.00
7325;DHT22;3703;48.016;7.802;2023-08-24T03:53:03;25.40;1.00
7325;DHT22;3703;48.016;7.802;2023-08-24T03:55:31;25.30;1.00
7325;DHT22;3703;48.016;7.802;2023-08-24T03:58:01;25.50;1.00
7325;DHT22;3703;48.016;7.802;2023-08-24T04:00:28;25.40;1.00
7325;DHT22;3703;48.016;7.802;2023-08-24T04:02:56;25.30;1.00
7325;DHT22;3703;48.016;7.802;2023-08-24T04:05:24;25.00;99.90
7325;DHT22;3703;48.016;7.802;2023-08-24T04:07:51;25.00;56.20
7325;DHT22;3703;48.016;7.802;2023-08-24T04:10:18;24.70;99.90
7325;DHT22;3703;48.016;7.802;2023-08-24T04:12:45;24.70;99.90
7325;DHT22;3703;48.016;7.802;2023-08-24T04:15:14;24.90;94.10
7325;DHT22;3703;48.016;7.802;2023-08-24T04:17:41;25.00;99.90
7325;DHT22;3703;48.016;7.802;2023-08-24T04:20:09;25.10;99.90
7325;DHT22;3703;48.016;7.802;2023-08-24T04:22:37;25.40;49.40
7325;DHT22;3703;48.016;7.802;2023-08-24T04:25:05;25.40;41.80
7325;DHT22;3703;48.016;7.802;2023-08-24T04:27:33;25.70;1.00
7325;DHT22;3703;48.016;7.802;2023-08-24T04:30:00;25.70;1.00
7325;DHT22;3703;48.016;7.802;2023-08-24T04:32:31;25.60;1.00
7325;DHT22;3703;48.016;7.802;2023-08-24T04:34:59;25.70;1.00
7325;DHT22;3703;48.016;7.802;2023-08-24T04:37:26;26.00;1.00
7325;DHT22;3703;48.016;7.802;2023-08-24T04:39:53;25.50;99.90
7325;DHT22;3703;48.016;7.802;2023-08-24T04:42:20;25.20;1.00
7325;DHT22;3703;48.016;7.802;2023-08-24T04:44:48;25.20;1.00
7325;DHT22;3703;48.016;7.802;2023-08-24T04:47:15;25.20;1.00
7325;DHT22;3703;48.016;7.802;2023-08-24T04:49:43;25.10;90.70
7325;DHT22;3703;48.016;7.802;2023-08-24T04:52:10;25.10;99.90
7325;DHT22;3703;48.016;7.802;2023-08-24T04:54:38;25.20;99.90
7325;DHT22;3703;48.016;7.802;2023-08-24T04:57:05;25.30;4.80
7325;DHT22;3703;48.016;7.802;2023-08-24T04:59:33;25.40;1.00
7325;DHT22;3703;48.016;7.802;2023-08-24T05:02:00;25.30;1.00
7325;DHT22;3703;48.016;7.802;2023-08-24T05:04:27;25.10;99.90
7325;DHT22;3703;48.016;7.802;2023-08-24T05:06:56;25.10;99.90
7325;DHT22;3703;48.016;7.802;2023-08-24T05:09:23;25.30;38.30
7325;DHT22;3703;48.016;7.802;2023-08-24T05:12:08;25.50;1.00
7325;DHT22;3703;48.016;7.802;2023-08-24T05:14:35;25.50;1.00
7325;DHT22;3703;48.016;7.802;2023-08-24T05:17:02;25.20;59.20
7325;DHT22;3703;48.016;7.802;2023-08-24T05:19:30;25.30;1.00
7325;DHT22;3703;48.016;7.802;2023-08-24T05:21:58;25.50;1.00
7325;DHT22;3703;48.016;7.802;2023-08-24T05:24:26;25.60;1.00
7325;DHT22;3703;48.016;7.802;2023-08-24T05:26:53;25.70;1.00
7325;DHT22;3703;48.016;7.802;2023-08-24T05:29:20;25.80;1.00
7325;DHT22;3703;48.016;7.802;2023-08-24T05:31:47;25.70;1.00
7325;DHT22;3703;48.016;7.802;2023-08-24T05:34:14;25.80;1.00
7325;DHT22;3703;48.016;7.802;2023-08-24T05:36:41;24.90;99.90
7325;DHT22;3703;48.016;7.802;2023-08-24T05:39:10;23.70;1.00
7325;DHT22;3703;48.016;7.802;2023-08-24T05:41:37;23.20;1.00
7325;DHT22;3703;48.016;7.802;2023-08-24T05:44:04;22.70;1.00
7325;DHT22;3703;48.016;7.802;2023-08-24T05:46:31;22.50;1.00
7325;DHT22;3703;48.016;7.802;2023-08-24T05:48:59;22.20;1.00
7325;DHT22;3703;48.016;7.802;2023-08-24T05:53:54;22.10;1.00
7325;DHT22;3703;48.016;7.802;2023-08-24T05:58:51;22.30;1.00
7325;DHT22;3703;48.016;7.802;2023-08-24T06:01:18;22.30;1.00
7325;DHT22;3703;48.016;7.802;2023-08-24T06:03:45;22.10;1.00
7325;DHT22;3703;48.016;7.802;2023-08-24T06:06:12;22.20;1.00
7325;DHT22;3703;48.016;7.802;2023-08-24T06:08:40;23.00;1.00
7325;DHT22;3703;48.016;7.802;2023-08-24T06:11:07;23.70;1.00
7325;DHT22;3703;48.016;7.802;2023-08-24T06:13:35;24.30;1.00
7325;DHT22;3703;48.016;7.802;2023-08-24T06:16:02;24.80;1.00
7325;DHT22;3703;48.016;7.802;2023-08-24T06:18:30;25.10;99.90
7325;DHT22;3703;48.016;7.802;2023-08-24T06:20:57;25.10;99.90
7325;DHT22;3703;48.016;7.802;2023-08-24T06:23:24;25.30;99.90
7325;DHT22;3703;48.016;7.802;2023-08-24T06:25:52;25.80;99.90
7325;DHT22;3703;48.016;7.802;2023-08-24T06:28:19;26.00;99.90
7325;DHT22;3703;48.016;7.802;2023-08-24T06:30:48;26.10;99.90
7325;DHT22;3703;48.016;7.802;2023-08-24T06:33:17;26.40;76.00
7325;DHT22;3703;48.016;7.802;2023-08-24T06:35:44;26.50;1.00
7325;DHT22;3703;48.016;7.802;2023-08-24T06:38:13;26.60;1.00
7325;DHT22;3703;48.016;7.802;2023-08-24T06:40:47;26.70;1.00
7325;DHT22;3703;48.016;7.802;2023-08-24T06:43:14;26.30;1.00
7325;DHT22;3703;48.016;7.802;2023-08-24T06:45:41;26.40;1.00
7325;DHT22;3703;48.016;7.802;2023-08-24T06:48:10;26.30;1.00
7325;DHT22;3703;48.016;7.802;2023-08-24T06:50:37;26.30;1.00
7325;DHT22;3703;48.016;7.802;2023-08-24T06:53:04;26.40;1.00
7325;DHT22;3703;48.016;7.802;2023-08-24T06:55:31;26.40;1.00
7325;DHT22;3703;48.016;7.802;2023-08-24T06:57:58;26.40;1.00
7325;DHT22;3703;48.016;7.802;2023-08-24T07:00:25;26.70;1.00
7325;DHT22;3703;48.016;7.802;2023-08-24T07:02:52;26.70;1.00
7325;DHT22;3703;48.016;7.802;2023-08-24T07:05:21;26.80;1.00
7325;DHT22;3703;48.016;7.802;2023-08-24T07:07:49;27.00;99.90
7325;DHT22;3703;48.016;7.802;2023-08-24T07:10:17;27.20;99.90
7325;DHT22;3703;48.016;7.802;2023-08-24T07:12:44;27.30;1.00
7325;DHT22;3703;48.016;7.802;2023-08-24T07:15:11;27.50;7.60
7325;DHT22;3703;48.016;7.802;2023-08-24T07:17:42;27.60;30.90
7325;DHT22;3703;48.016;7.802;2023-08-24T07:20:10;27.50;97.20
7325;DHT22;3703;48.016;7.802;2023-08-24T07:22:40;27.50;1.00
7325;DHT22;3703;48.016;7.802;2023-08-24T07:25:08;27.60;99.90
7325;DHT22;3703;48.016;7.802;2023-08-24T07:27:37;28.50;99.90
7325;DHT22;3703;48.016;7.802;2023-08-24T07:30:05;27.70;99.90
7325;DHT22;3703;48.016;7.802;2023-08-24T07:32:33;27.80;1.00
7325;DHT22;3703;48.016;7.802;2023-08-24T07:35:00;27.80;1.00
7325;DHT22;3703;48.016;7.802;2023-08-24T07:37:27;27.80;1.00
7325;DHT22;3703;48.016;7.802;2023-08-24T07:39:56;27.60;1.00
7325;DHT22;3703;48.016;7.802;2023-08-24T07:42:23;27.70;99.90
7325;DHT22;3703;48.016;7.802;2023-08-24T07:44:50;27.90;1.00
7325;DHT22;3703;48.016;7.802;2023-08-24T07:47:17;28.00;1.00
7325;DHT22;3703;48.016;7.802;2023-08-24T07:49:45;27.60;99.90
7325;DHT22;3703;48.016;7.802;2023-08-24T07:52:12;27.50;18.40
7325;DHT22;3703;48.016;7.802;2023-08-24T07:54:39;27.50;99.90
7325;DHT22;3703;48.016;7.802;2023-08-24T07:57:08;27.80;12.10
7325;DHT22;3703;48.016;7.802;2023-08-24T07:59:35;28.20;99.90
7325;DHT22;3703;48.016;7.802;2023-08-24T08:02:03;29.60;1.00
7325;DHT22;3703;48.016;7.802;2023-08-24T08:04:30;28.60;99.90
7325;DHT22;3703;48.016;7.802;2023-08-24T08:06:57;28.50;1.00
7325;DHT22;3703;48.016;7.802;2023-08-24T08:09:25;27.50;1.00
7325;DHT22;3703;48.016;7.802;2023-08-24T08:11:52;26.70;1.00
7325;DHT22;3703;48.016;7.802;2023-08-24T08:14:21;26.40;99.90
7325;DHT22;3703;48.016;7.802;2023-08-24T08:16:49;26.80;1.00
7325;DHT22;3703;48.016;7.802;2023-08-24T08:19:16;27.20;1.00
7325;DHT22;3703;48.016;7.802;2023-08-24T08:21:45;27.70;99.90
7325;DHT22;3703;48.016;7.802;2023-08-24T08:24:12;28.10;1.00
7325;DHT22;3703;48.016;7.802;2023-08-24T08:26:40;28.40;99.90
7325;DHT22;3703;48.016;7.802;2023-08-24T08:29:08;27.90;99.90
7325;DHT22;3703;48.016;7.802;2023-08-24T08:31:37;28.20;1.00
7325;DHT22;3703;48.016;7.802;2023-08-24T08:34:04;28.20;1.00
7325;DHT22;3703;48.016;7.802;2023-08-24T08:36:31;28.60;99.90
7325;DHT22;3703;48.016;7.802;2023-08-24T08:38:59;28.80;99.90
7325;DHT22;3703;48.016;7.802;2023-08-24T08:41:28;28.90;1.00
7325;DHT22;3703;48.016;7.802;2023-08-24T08:43:59;28.90;99.90
7325;DHT22;3703;48.016;7.802;2023-08-24T08:46:27;28.90;99.90
7325;DHT22;3703;48.016;7.802;2023-08-24T08:48:59;29.30;75.80
7325;DHT22;3703;48.016;7.802;2023-08-24T08:51:28;29.60;1.00
7325;DHT22;3703;48.016;7.802;2023-08-24T08:53:56;29.80;99.90
7325;DHT22;3703;48.016;7.802;2023-08-24T08:56:24;29.80;99.90
7325;DHT22;3703;48.016;7.802;2023-08-24T08:58:52;29.40;99.90
7325;DHT22;3703;48.016;7.802;2023-08-24T09:01:20;29.80;99.90
7325;DHT22;3703;48.016;7.802;2023-08-24T09:03:48;30.00;99.90
7325;DHT22;3703;48.016;7.802;2023-08-24T09:06:17;29.80;1.00
7325;DHT22;3703;48.016;7.802;2023-08-24T09:08:45;29.90;1.00
7325;DHT22;3703;48.016;7.802;2023-08-24T09:11:12;30.30;99.90
7325;DHT22;3703;48.016;7.802;2023-08-24T09:13:39;30.60;1.00
7325;DHT22;3703;48.016;7.802;2023-08-24T09:16:07;30.80;99.90
7325;DHT22;3703;48.016;7.802;2023-08-24T09:18:43;30.80;99.90
7325;DHT22;3703;48.016;7.802;2023-08-24T09:21:12;30.40;28.60
7325;DHT22;3703;48.016;7.802;2023-08-24T09:23:45;30.80;58.40
7325;DHT22;3703;48.016;7.802;2023-08-24T09:26:27;29.20;1.00
7325;DHT22;3703;48.016;7.802;2023-08-24T09:28:55;30.00;99.90
7325;DHT22;3703;48.016;7.802;2023-08-24T09:31:23;30.20;99.90
7325;DHT22;3703;48.016;7.802;2023-08-24T09:33:50;30.30;1.00
7325;DHT22;3703;48.016;7.802;2023-08-24T09:36:26;30.50;1.00
7325;DHT22;3703;48.016;7.802;2023-08-24T09:38:56;30.40;99.90
7325;DHT22;3703;48.016;7.802;2023-08-24T09:41:23;30.50;1.00
7325;DHT22;3703;48.016;7.802;2023-08-24T09:43:50;30.60;1.00
7325;DHT22;3703;48.016;7.802;2023-08-24T09:46:19;30.70;1.00
7325;DHT22;3703;48.016;7.802;2023-08-24T09:48:53;30.60;1.00
7325;DHT22;3703;48.016;7.802;2023-08-24T09:51:22;31.00;1.00
7325;DHT22;3703;48.016;7.802;2023-08-24T09:53:50;31.30;99.90
7325;DHT22;3703;48.016;7.802;2023-08-24T09:56:20;31.60;1.00
7325;DHT22;3703;48.016;7.802;2023-08-24T09:58:49;31.70;1.00
7325;DHT22;3703;48.016;7.802;2023-08-24T10:01:19;31.30;1.00
7325;DHT22;3703;48.016;7.802;2023-08-24T10:03:47;29.90;1.00
7325;DHT22;3703;48.016;7.802;2023-08-24T10:06:19;29.90;99.90
7325;DHT22;3703;48.016;7.802;2023-08-24T10:08:52;30.50;99.90
7325;DHT22;3703;48.016;7.802;2023-08-24T10:11:26;30.60;99.90
7325;DHT22;3703;48.016;7.802;2023-08-24T10:14:00;30.80;99.90
7325;DHT22;3703;48.016;7.802;2023-08-24T10:16:34;30.50;8.40
7325;DHT22;3703;48.016;7.802;2023-08-24T10:19:02;31.10;59.80
7325;DHT22;3703;48.016;7.802;2023-08-24T10:21:30;31.60;1.00
7325;DHT22;3703;48.016;7.802;2023-08-24T10:24:08;31.40;1.00
7325;DHT22;3703;48.016;7.802;2023-08-24T10:26:39;31.40;1.00
7325;DHT22;3703;48.016;7.802;2023-08-24T10:29:07;31.70;1.00
7325;DHT22;3703;48.016;7.802;2023-08-24T10:31:35;31.70;1.00
7325;DHT22;3703;48.016;7.802;2023-08-24T10:34:04;31.80;1.00
7325;DHT22;3703;48.016;7.802;2023-08-24T10:36:32;31.60;1.00
7325;DHT22;3703;48.016;7.802;2023-08-24T10:39:02;31.50;1.00
7325;DHT22;3703;48.016;7.802;2023-08-24T10:41:49;31.40;1.00
7325;DHT22;3703;48.016;7.802;2023-08-24T10:44:21;31.60;1.00
7325;DHT22;3703;48.016;7.802;2023-08-24T10:47:23;31.30;99.90
7325;DHT22;3703;48.016;7.802;2023-08-24T10:49:59;30.80;1.00
7325;DHT22;3703;48.016;7.802;2023-08-24T10:52:31;31.30;1.00
7325;DHT22;3703;48.016;7.802;2023-08-24T10:55:01;31.80;1.00
7325;DHT22;3703;48.016;7.802;2023-08-24T10:57:36;31.20;99.90
7325;DHT22;3703;48.016;7.802;2023-08-24T11:00:06;30.90;1.00
7325;DHT22;3703;48.016;7.802;2023-08-24T11:02:42;31.50;1.00
7325;DHT22;3703;48.016;7.802;2023-08-24T11:05:20;31.40;99.90
7325;DHT22;3703;48.016;7.802;2023-08-24T11:07:52;31.70;99.90
7325;DHT22;3703;48.016;7.802;2023-08-24T11:10:21;31.80;99.90
7325;DHT22;3703;48.016;7.802;2023-08-24T11:13:13;32.50;1.00
7325;DHT22;3703;48.016;7.802;2023-08-24T11:15:43;32.90;99.90
7325;DHT22;3703;48.016;7.802;2023-08-24T11:18:22;32.00;99.90
7325;DHT22;3703;48.016;7.802;2023-08-24T11:20:51;31.60;99.90
7325;DHT22;3703;48.016;7.802;2023-08-24T11:23:21;32.40;99.90
7325;DHT22;3703;48.016;7.802;2023-08-24T11:25:51;33.30;99.90
7325;DHT22;3703;48.016;7.802;2023-08-24T11:28:23;33.50;99.90
7325;DHT22;3703;48.016;7.802;2023-08-24T11:30:52;33.50;1.00
7325;DHT22;3703;48.016;7.802;2023-08-24T11:33:28;33.40;1.00
7325;DHT22;3703;48.016;7.802;2023-08-24T11:35:56;33.80;1.00
7325;DHT22;3703;48.016;7.802;2023-08-24T11:38:23;34.50;1.00
7325;DHT22;3703;48.016;7.802;2023-08-24T11:40:55;35.10;1.00
7325;DHT22;3703;48.016;7.802;2023-08-24T11:43:26;35.00;1.00
7325;DHT22;3703;48.016;7.802;2023-08-24T11:45:54;33.10;1.00
7325;DHT22;3703;48.016;7.802;2023-08-24T11:48:24;32.30;1.00
7325;DHT22;3703;48.016;7.802;2023-08-24T11:50:52;32.60;1.00
7325;DHT22;3703;48.016;7.802;2023-08-24T11:53:20;33.40;1.00
7325;DHT22;3703;48.016;7.802;2023-08-24T11:55:51;34.40;1.00
7325;DHT22;3703;48.016;7.802;2023-08-24T11:58:19;34.60;1.00
7325;DHT22;3703;48.016;7.802;2023-08-24T12:00:52;34.00;99.90
7325;DHT22;3703;48.016;7.802;2023-08-24T12:03:19;33.90;99.90
7325;DHT22;3703;48.016;7.802;2023-08-24T12:05:46;34.40;1.00
7325;DHT22;3703;48.016;7.802;2023-08-24T12:08:14;35.50;1.00
7325;DHT22;3703;48.016;7.802;2023-08-24T12:10:42;36.40;99.90
7325;DHT22;3703;48.016;7.802;2023-08-24T12:13:09;36.70;99.90
7325;DHT22;3703;48.016;7.802;2023-08-24T12:15:38;36.90;99.90
7325;DHT22;3703;48.016;7.802;2023-08-24T12:18:09;35.40;99.90
7325;DHT22;3703;48.016;7.802;2023-08-24T12:20:37;35.30;99.90
7325;DHT22;3703;48.016;7.802;2023-08-24T12:23:06;35.70;99.90
7325;DHT22;3703;48.016;7.802;2023-08-24T12:25:36;36.50;99.90
7325;DHT22;3703;48.016;7.802;2023-08-24T12:28:11;37.20;99.90
7325;DHT22;3703;48.016;7.802;2023-08-24T12:30:46;38.40;99.90
7325;DHT22;3703;48.016;7.802;2023-08-24T12:33:25;39.60;83.50
7325;DHT22;3703;48.016;7.802;2023-08-24T12:35:54;40.30;1.00
7325;DHT22;3703;48.016;7.802;2023-08-24T12:38:23;40.60;1.00
7325;DHT22;3703;48.016;7.802;2023-08-24T12:40:50;40.20;1.00
7325;DHT22;3703;48.016;7.802;2023-08-24T12:43:18;41.10;1.00
7325;DHT22;3703;48.016;7.802;2023-08-24T12:45:45;41.80;1.00
7325;DHT22;3703;48.016;7.802;2023-08-24T12:48:12;42.70;1.00
7325;DHT22;3703;48.016;7.802;2023-08-24T12:50:41;42.60;1.00
7325;DHT22;3703;48.016;7.802;2023-08-24T12:53:08;43.30;1.00
7325;DHT22;3703;48.016;7.802;2023-08-24T12:55:36;44.10;1.00
7325;DHT22;3703;48.016;7.802;2023-08-24T12:58:06;44.80;1.00
7325;DHT22;3703;48.016;7.802;2023-08-24T13:00:33;45.00;1.00
7325;DHT22;3703;48.016;7.802;2023-08-24T13:03:00;45.00;1.00
7325;DHT22;3703;48.016;7.802;2023-08-24T13:05:27;45.20;1.00
7325;DHT22;3703;48.016;7.802;2023-08-24T13:07:56;46.00;1.00
7325;DHT22;3703;48.016;7.802;2023-08-24T13:10:23;44.70;99.90
7325;DHT22;3703;48.016;7.802;2023-08-24T13:12:50;42.70;99.90
7325;DHT22;3703;48.016;7.802;2023-08-24T13:15:17;42.30;99.90
7325;DHT22;3703;48.016;7.802;2023-08-24T13:17:46;41.50;99.90
7325;DHT22;3703;48.016;7.802;2023-08-24T13:20:13;41.70;99.90
7325;DHT22;3703;48.016;7.802;2023-08-24T13:22:41;43.70;99.90
7325;DHT22;3703;48.016;7.802;2023-08-24T13:25:10;43.90;99.90
7325;DHT22;3703;48.016;7.802;2023-08-24T13:27:37;42.00;99.90
7325;DHT22;3703;48.016;7.802;2023-08-24T13:30:05;42.80;99.90
7325;DHT22;3703;48.016;7.802;2023-08-24T13:32:33;42.50;99.90
7325;DHT22;3703;48.016;7.802;2023-08-24T13:35:00;41.30;99.90
7325;DHT22;3703;48.016;7.802;2023-08-24T13:37:28;42.90;1.00
7325;DHT22;3703;48.016;7.802;2023-08-24T13:39:55;43.60;1.00
7325;DHT22;3703;48.016;7.802;2023-08-24T13:42:23;42.30;1.00
7325;DHT22;3703;48.016;7.802;2023-08-24T13:44:50;41.30;1.00
7325;DHT22;3703;48.016;7.802;2023-08-24T13:47:18;40.60;99.90
7325;DHT22;3703;48.016;7.802;2023-08-24T13:49:47;41.70;1.00
7325;DHT22;3703;48.016;7.802;2023-08-24T13:52:14;41.90;1.00
7325;DHT22;3703;48.016;7.802;2023-08-24T13:54:45;40.60;1.00
7325;DHT22;3703;48.016;7.802;2023-08-24T13:57:13;40.10;99.90
7325;DHT22;3703;48.016;7.802;2023-08-24T13:59:44;40.60;99.90
7325;DHT22;3703;48.016;7.802;2023-08-24T14:02:11;41.30;99.90
7325;DHT22;3703;48.016;7.802;2023-08-24T14:04:39;42.10;99.90
7325;DHT22;3703;48.016;7.802;2023-08-24T14:07:07;42.30;1.00
7325;DHT22;3703;48.016;7.802;2023-08-24T14:09:35;41.90;1.00
7325;DHT22;3703;48.016;7.802;2023-08-24T14:12:02;41.80;99.90
7325;DHT22;3703;48.016;7.802;2023-08-24T14:14:29;41.90;1.00
7325;DHT22;3703;48.016;7.802;2023-08-24T14:16:58;42.30;1.00
7325;DHT22;3703;48.016;7.802;2023-08-24T14:19:25;42.00;1.00
7325;DHT22;3703;48.016;7.802;2023-08-24T14:21:53;41.30;1.00
7325;DHT22;3703;48.016;7.802;2023-08-24T14:24:20;41.00;1.00
7325;DHT22;3703;48.016;7.802;2023-08-24T14:26:47;41.30;1.00
7325;DHT22;3703;48.016;7.802;2023-08-24T14:29:15;41.30;1.00
7325;DHT22;3703;48.016;7.802;2023-08-24T14:31:42;40.50;1.00
7325;DHT22;3703;48.016;7.802;2023-08-24T14:34:12;40.20;1.00
7325;DHT22;3703;48.016;7.802;2023-08-24T14:36:39;40.30;1.00
7325;DHT22;3703;48.016;7.802;2023-08-24T14:39:06;39.90;1.00
7325;DHT22;3703;48.016;7.802;2023-08-24T14:41:33;39.70;1.00
7325;DHT22;3703;48.016;7.802;2023-08-24T14:44:01;39.50;99.90
7325;DHT22;3703;48.016;7.802;2023-08-24T14:46:28;39.20;99.90
7325;DHT22;3703;48.016;7.802;2023-08-24T14:48:55;38.90;99.90
7325;DHT22;3703;48.016;7.802;2023-08-24T14:51:23;38.70;99.90
7325;DHT22;3703;48.016;7.802;2023-08-24T14:53:51;38.70;99.90
7325;DHT22;3703;48.016;7.802;2023-08-24T14:56:18;38.80;99.90
7325;DHT22;3703;48.016;7.802;2023-08-24T14:58:45;38.80;99.90
7325;DHT22;3703;48.016;7.802;2023-08-24T15:01:12;38.90;99.90
7325;DHT22;3703;48.016;7.802;2023-08-24T15:03:39;38.80;99.90
7325;DHT22;3703;48.016;7.802;2023-08-24T15:06:07;38.50;99.90
7325;DHT22;3703;48.016;7.802;2023-08-24T15:08:35;38.10;99.90
7325;DHT22;3703;48.016;7.802;2023-08-24T15:11:03;38.10;99.90
7325;DHT22;3703;48.016;7.802;2023-08-24T15:13:30;37.60;1.00
7325;DHT22;3703;48.016;7.802;2023-08-24T15:15:58;36.50;99.90
7325;DHT22;3703;48.016;7.802;2023-08-24T15:18:26;35.70;99.90
7325;DHT22;3703;48.016;7.802;2023-08-24T15:20:53;35.20;99.90
7325;DHT22;3703;48.016;7.802;2023-08-24T15:23:22;34.70;99.90
7325;DHT22;3703;48.016;7.802;2023-08-24T15:25:52;34.30;99.90
7325;DHT22;3703;48.016;7.802;2023-08-24T15:28:20;33.90;99.90
7325;DHT22;3703;48.016;7.802;2023-08-24T15:30:47;33.70;1.00
7325;DHT22;3703;48.016;7.802;2023-08-24T15:33:15;33.60;1.00
7325;DHT22;3703;48.016;7.802;2023-08-24T15:35:43;33.60;1.00
7325;DHT22;3703;48.016;7.802;2023-08-24T15:38:11;33.70;1.00
7325;DHT22;3703;48.016;7.802;2023-08-24T15:40:38;33.70;1.00
7325;DHT22;3703;48.016;7.802;2023-08-24T15:43:07;33.40;1.00
7325;DHT22;3703;48.016;7.802;2023-08-24T15:45:34;33.50;1.00
7325;DHT22;3703;48.016;7.802;2023-08-24T15:48:02;33.30;1.00
7325;DHT22;3703;48.016;7.802;2023-08-24T15:50:30;33.30;2.50
7325;DHT22;3703;48.016;7.802;2023-08-24T15:52:57;33.00;99.90
7325;DHT22;3703;48.016;7.802;2023-08-24T15:55:27;33.10;99.90
7325;DHT22;3703;48.016;7.802;2023-08-24T15:57:58;33.00;99.90
7325;DHT22;3703;48.016;7.802;2023-08-24T16:00:26;33.20;99.90
7325;DHT22;3703;48.016;7.802;2023-08-24T16:02:53;33.40;99.90
7325;DHT22;3703;48.016;7.802;2023-08-24T16:05:21;33.40;99.90
7325;DHT22;3703;48.016;7.802;2023-08-24T16:07:50;33.20;99.90
7325;DHT22;3703;48.016;7.802;2023-08-24T16:15:15;33.00;1.00
7325;DHT22;3703;48.016;7.802;2023-08-24T16:17:43;33.20;1.00
7325;DHT22;3703;48.016;7.802;2023-08-24T16:20:11;33.20;1.00
7325;DHT22;3703;48.016;7.802;2023-08-24T16:22:39;33.40;1.00
7325;DHT22;3703;48.016;7.802;2023-08-24T16:25:07;33.50;1.00
7325;DHT22;3703;48.016;7.802;2023-08-24T16:27:35;33.50;1.00
7325;DHT22;3703;48.016;7.802;2023-08-24T16:30:03;33.40;1.00